createdAt,value
2022-09-24T02:06:06.380Z,100141
2022-09-24T05:09:54.375Z,100051
2022-09-24T05:30:12.888Z,100048
2022-09-24T05:36:20.602Z,100037
2022-09-24T05:42:14.775Z,100041
2022-09-24T05:48:39.032Z,100042
2022-09-24T06:08:16.752Z,100062
2022-09-24T06:14:37.730Z,100065
2022-09-24T06:20:29.144Z,100074
2022-09-24T06:26:20.865Z,100079
2022-09-24T06:32:30.684Z,100078
2022-09-24T06:38:42.894Z,100091
2022-09-24T06:44:44.815Z,100096
2022-09-24T06:50:36.787Z,100094
2022-09-24T06:56:28.686Z,100086
2022-09-24T07:02:17.362Z,100092
2022-09-24T07:08:09.455Z,100090
2022-09-24T07:14:02.999Z,100092
2022-09-24T07:19:55.746Z,100088
2022-09-24T07:25:50.747Z,100091
2022-09-24T07:31:43.144Z,100086
2022-09-24T07:37:35.818Z,100089
2022-09-24T07:43:26.586Z,100093
2022-09-24T07:49:20.469Z,100097
2022-09-24T07:55:10.675Z,100100
2022-09-24T08:00:59.461Z,100098
2022-09-24T08:06:52.398Z,100102
2022-09-24T08:12:43.478Z,100107
2022-09-24T08:18:35.597Z,100109
2022-09-24T08:24:26.746Z,100109
2022-09-24T08:30:19.698Z,100106
2022-09-24T08:36:12.700Z,100105
2022-09-24T08:42:01.244Z,100114
2022-09-24T08:47:57.365Z,100106
2022-09-24T08:53:52.034Z,100110
2022-09-24T08:59:44.219Z,100101
2022-09-24T09:05:35.294Z,100100
2022-09-24T09:11:27.089Z,100105
2022-09-24T09:17:20.876Z,100100
2022-09-24T09:23:11.455Z,100102
2022-09-24T09:29:02.730Z,100101
2022-09-24T09:34:53.612Z,100096
2022-09-24T09:40:45.376Z,100091
2022-09-24T09:46:40.834Z,100099
2022-09-24T10:07:13.039Z,100108
2022-09-24T10:13:20.141Z,100114
2022-09-24T10:19:18.999Z,100110
2022-09-24T10:25:11.317Z,100105
2022-09-24T10:31:02.429Z,100088
2022-09-24T10:36:56.726Z,100082
2022-09-24T10:42:46.926Z,100075
2022-09-24T10:48:38.806Z,100084
2022-09-24T10:54:33.190Z,100077
2022-09-24T11:00:22.213Z,100080
2022-09-24T11:06:13.722Z,100085
2022-09-24T11:12:07.273Z,100077
2022-09-24T11:18:02.581Z,100064
2022-09-24T11:23:54.808Z,100067
2022-09-24T11:30:01.230Z,100063
2022-09-24T11:35:52.099Z,100063
2022-09-24T11:41:44.656Z,100064
2022-09-24T11:47:38.230Z,100059
2022-09-24T11:53:30.072Z,100054
2022-09-24T11:59:26.908Z,100045
2022-09-24T12:05:34.487Z,100048
2022-09-24T12:11:36.243Z,100046
2022-09-24T12:17:32.147Z,100041
2022-09-24T12:23:31.274Z,100040
2022-09-24T12:29:24.083Z,100033
2022-09-24T12:35:13.593Z,100039
2022-09-24T12:41:03.844Z,100036
2022-09-24T12:46:56.667Z,100038
2022-09-24T12:52:48.478Z,100035
2022-09-24T12:58:42.459Z,100032
2022-09-24T13:04:36.232Z,100023
2022-09-24T13:10:29.867Z,100024
2022-09-24T13:16:27.004Z,100022
2022-09-24T13:22:17.200Z,100024
2022-09-24T13:28:08.075Z,100024
2022-09-24T13:33:59.360Z,100019
2022-09-24T13:39:54.103Z,100020
2022-09-24T13:45:49.799Z,100022
2022-09-24T13:51:43.783Z,100025
2022-09-24T13:57:36.912Z,100031
2022-09-24T14:03:28.447Z,100033
2022-09-24T14:09:19.701Z,100033
2022-09-24T14:15:13.365Z,100032
2022-09-24T14:21:07.167Z,100034
2022-09-24T14:27:00.090Z,100026
2022-09-24T14:32:59.957Z,100028
2022-09-24T14:39:00.553Z,100031
2022-09-24T14:44:55.627Z,100026
2022-09-24T14:50:46.882Z,100021
2022-09-24T14:56:45.124Z,100017
2022-09-24T15:02:41.538Z,100023
2022-09-24T15:08:34.512Z,100029
2022-09-24T15:14:46.375Z,100027
2022-09-24T15:20:40.660Z,100031
2022-09-24T15:26:38.198Z,100034
2022-09-24T15:32:57.327Z,100035
2022-09-24T15:39:10.264Z,100028
2022-09-24T15:45:06.642Z,100027
2022-09-24T15:51:11.040Z,100034
2022-09-24T15:57:04.733Z,100030
2022-09-24T16:03:13.273Z,100028
2022-09-24T16:22:33.731Z,100039
2022-09-24T16:28:27.926Z,100052
2022-09-24T16:34:25.156Z,100044
2022-09-24T16:40:18.857Z,100045
2022-09-24T16:46:16.477Z,100051
2022-09-24T16:52:08.437Z,100056
2022-09-24T16:57:58.210Z,100063
2022-09-24T17:03:48.270Z,100062
2022-09-24T17:09:38.733Z,100060
2022-09-24T17:15:31.560Z,100063
2022-09-24T17:21:22.429Z,100065
2022-09-24T17:27:13.722Z,100064
2022-09-24T17:33:42.136Z,100065
2022-09-24T17:39:33.799Z,100068
2022-09-24T17:45:25.039Z,100067
2022-09-24T17:51:16.343Z,100069
2022-09-24T17:57:08.115Z,100077
2022-09-24T18:03:00.949Z,100069
2022-09-24T18:08:51.655Z,100073
2022-09-24T18:14:43.064Z,100074
2022-09-24T18:20:33.306Z,100071
2022-09-24T18:26:24.435Z,100081
2022-09-24T18:32:15.262Z,100082
2022-09-24T18:38:06.437Z,100080
2022-09-24T18:43:59.966Z,100090
2022-09-24T18:49:51.449Z,100092
2022-09-24T18:55:43.891Z,100097
2022-09-24T19:01:35.070Z,100104
2022-09-24T19:07:27.481Z,100096
2022-09-24T19:13:22.617Z,100091
2022-09-24T19:19:15.932Z,100092
2022-09-24T19:25:08.317Z,100100
2022-09-24T19:30:59.916Z,100107
2022-09-24T19:36:52.448Z,100107
2022-09-24T19:42:44.795Z,100113
2022-09-24T19:48:34.450Z,100117
2022-09-24T19:54:23.967Z,100122
2022-09-24T20:00:14.659Z,100120
2022-09-24T20:06:04.662Z,100118
2022-09-24T20:11:55.256Z,100121
2022-09-24T20:17:46.543Z,100122
2022-09-24T20:23:38.908Z,100126
2022-09-24T20:29:36.926Z,100127
2022-09-24T20:35:29.699Z,100136
2022-09-24T20:41:20.998Z,100131
2022-09-24T20:47:13.017Z,100129
2022-09-24T20:53:03.459Z,100130
2022-09-24T20:58:54.108Z,100135
2022-09-24T21:05:54.093Z,100126
2022-09-24T21:11:44.406Z,100139
2022-09-24T21:17:36.174Z,100143
2022-09-24T21:23:28.820Z,100150
2022-09-24T21:29:20.692Z,100150
2022-09-24T21:35:11.938Z,100157
2022-09-24T21:41:04.708Z,100156
2022-09-24T21:46:59.942Z,100154
2022-09-24T21:52:50.866Z,100155
2022-09-24T21:58:41.981Z,100150
2022-09-24T22:04:34.042Z,100141
2022-09-24T22:10:25.403Z,100139
2022-09-24T22:16:15.922Z,100143
2022-09-24T22:22:07.656Z,100148
2022-09-24T22:27:58.994Z,100144
2022-09-24T22:33:51.073Z,100144
2022-09-24T22:39:42.212Z,100149
2022-09-24T22:45:32.770Z,100141
2022-09-24T22:52:32.690Z,100139
2022-09-24T22:58:23.281Z,100141
2022-09-24T23:04:14.278Z,100143
2022-09-24T23:10:06.331Z,100140
2022-09-24T23:15:59.422Z,100137
2022-09-24T23:21:50.413Z,100138
2022-09-24T23:27:43.256Z,100136
2022-09-24T23:33:34.882Z,100134
2022-09-24T23:39:26.086Z,100134
2022-09-24T23:45:18.109Z,100133
2022-09-24T23:51:09.163Z,100135
2022-09-24T23:57:00.143Z,100137
